sensor_id;sensor_type;location;lat;lon;timestamp;temperature;humidity
4097;DHT22;2062;50.694;7.246;2023-11-21T00:02:07;9.30;73.80
4097;DHT22;2062;50.694;7.246;2023-11-21T00:04:35;9.20;73.80
4097;DHT22;2062;50.694;7.246;2023-11-21T00:07:03;9.20;73.60
4097;DHT22;2062;50.694;7.246;2023-11-21T00:09:31;9.30;73.80
4097;DHT22;2062;50.694;7.246;2023-11-21T00:11:58;9.30;74.60
4097;DHT22;2062;50.694;7.246;2023-11-21T00:14:25;9.30;73.80
4097;DHT22;2062;50.694;7.246;2023-11-21T00:16:52;9.30;73.80
4097;DHT22;2062;50.694;7.246;2023-11-21T00:19:19;9.30;73.80
4097;DHT22;2062;50.694;7.246;2023-11-21T00:21:47;9.30;73.70
4097;DHT22;2062;50.694;7.246;2023-11-21T00:24:14;9.30;73.70
4097;DHT22;2062;50.694;7.246;2023-11-21T00:26:41;9.30;73.70
4097;DHT22;2062;50.694;7.246;2023-11-21T00:29:08;9.30;73.60
4097;DHT22;2062;50.694;7.246;2023-11-21T00:31:34;9.30;73.60
4097;DHT22;2062;50.694;7.246;2023-11-21T00:34:02;9.30;73.60
4097;DHT22;2062;50.694;7.246;2023-11-21T00:36:30;9.30;73.60
4097;DHT22;2062;50.694;7.246;2023-11-21T00:38:58;9.30;73.50
4097;DHT22;2062;50.694;7.246;2023-11-21T00:41:24;9.30;73.50
4097;DHT22;2062;50.694;7.246;2023-11-21T00:43:52;9.30;73.70
4097;DHT22;2062;50.694;7.246;2023-11-21T00:46:19;9.30;73.60
4097;DHT22;2062;50.694;7.246;2023-11-21T00:48:46;9.30;73.60
4097;DHT22;2062;50.694;7.246;2023-11-21T00:51:13;9.30;73.60
4097;DHT22;2062;50.694;7.246;2023-11-21T00:53:40;9.40;73.70
4097;DHT22;2062;50.694;7.246;2023-11-21T00:56:08;9.30;73.70
4097;DHT22;2062;50.694;7.246;2023-11-21T00:58:35;9.30;73.70
4097;DHT22;2062;50.694;7.246;2023-11-21T01:01:02;9.40;73.70
4097;DHT22;2062;50.694;7.246;2023-11-21T01:03:29;9.40;73.70
4097;DHT22;2062;50.694;7.246;2023-11-21T01:05:56;9.40;73.80
4097;DHT22;2062;50.694;7.246;2023-11-21T01:08:22;9.30;73.70
4097;DHT22;2062;50.694;7.246;2023-11-21T01:10:50;9.40;73.80
4097;DHT22;2062;50.694;7.246;2023-11-21T01:13:18;9.40;73.90
4097;DHT22;2062;50.694;7.246;2023-11-21T01:15:45;9.40;73.80
4097;DHT22;2062;50.694;7.246;2023-11-21T01:18:12;9.40;73.80
4097;DHT22;2062;50.694;7.246;2023-11-21T01:20:38;9.40;73.70
4097;DHT22;2062;50.694;7.246;2023-11-21T01:23:05;9.40;73.80
4097;DHT22;2062;50.694;7.246;2023-11-21T01:25:32;9.40;73.80
4097;DHT22;2062;50.694;7.246;2023-11-21T01:27:59;9.40;73.80
4097;DHT22;2062;50.694;7.246;2023-11-21T01:30:27;9.40;73.70
4097;DHT22;2062;50.694;7.246;2023-11-21T01:32:54;9.40;73.80
4097;DHT22;2062;50.694;7.246;2023-11-21T01:35:20;9.40;73.80
4097;DHT22;2062;50.694;7.246;2023-11-21T01:37:47;9.40;73.80
4097;DHT22;2062;50.694;7.246;2023-11-21T01:40:14;9.40;73.90
4097;DHT22;2062;50.694;7.246;2023-11-21T01:42:41;9.50;73.90
4097;DHT22;2062;50.694;7.246;2023-11-21T01:45:09;9.40;73.90
4097;DHT22;2062;50.694;7.246;2023-11-21T01:47:40;9.40;73.90
4097;DHT22;2062;50.694;7.246;2023-11-21T01:50:08;9.40;73.90
4097;DHT22;2062;50.694;7.246;2023-11-21T01:52:38;9.50;74.00
4097;DHT22;2062;50.694;7.246;2023-11-21T01:55:08;9.40;73.90
4097;DHT22;2062;50.694;7.246;2023-11-21T01:57:35;9.50;74.10
4097;DHT22;2062;50.694;7.246;2023-11-21T02:00:04;9.50;74.00
4097;DHT22;2062;50.694;7.246;2023-11-21T02:02:42;9.50;74.10
4097;DHT22;2062;50.694;7.246;2023-11-21T02:05:09;9.50;73.90
4097;DHT22;2062;50.694;7.246;2023-11-21T02:07:38;9.50;74.00
4097;DHT22;2062;50.694;7.246;2023-11-21T02:10:06;9.50;74.00
4097;DHT22;2062;50.694;7.246;2023-11-21T02:12:33;9.40;73.90
4097;DHT22;2062;50.694;7.246;2023-11-21T02:15:00;9.50;74.10
4097;DHT22;2062;50.694;7.246;2023-11-21T02:17:28;9.50;74.10
4097;DHT22;2062;50.694;7.246;2023-11-21T02:19:56;9.50;74.00
4097;DHT22;2062;50.694;7.246;2023-11-21T02:22:25;9.50;74.00
4097;DHT22;2062;50.694;7.246;2023-11-21T02:24:55;9.50;74.10
4097;DHT22;2062;50.694;7.246;2023-11-21T02:27:23;9.50;74.20
4097;DHT22;2062;50.694;7.246;2023-11-21T02:29:50;9.40;74.10
4097;DHT22;2062;50.694;7.246;2023-11-21T02:32:17;9.50;74.20
4097;DHT22;2062;50.694;7.246;2023-11-21T02:34:44;9.50;74.20
4097;DHT22;2062;50.694;7.246;2023-11-21T02:37:11;9.40;74.10
4097;DHT22;2062;50.694;7.246;2023-11-21T02:39:38;9.50;74.20
4097;DHT22;2062;50.694;7.246;2023-11-21T02:42:06;9.50;74.20
4097;DHT22;2062;50.694;7.246;2023-11-21T02:44:34;9.50;74.30
4097;DHT22;2062;50.694;7.246;2023-11-21T02:47:01;9.50;74.30
4097;DHT22;2062;50.694;7.246;2023-11-21T02:49:29;9.50;74.30
4097;DHT22;2062;50.694;7.246;2023-11-21T02:51:56;9.50;74.40
4097;DHT22;2062;50.694;7.246;2023-11-21T02:54:23;9.50;74.30
4097;DHT22;2062;50.694;7.246;2023-11-21T02:56:50;9.50;74.30
4097;DHT22;2062;50.694;7.246;2023-11-21T02:59:18;9.50;74.30
4097;DHT22;2062;50.694;7.246;2023-11-21T03:01:45;9.50;74.40
4097;DHT22;2062;50.694;7.246;2023-11-21T03:04:12;9.50;74.30
4097;DHT22;2062;50.694;7.246;2023-11-21T03:06:43;9.50;74.40
4097;DHT22;2062;50.694;7.246;2023-11-21T03:09:10;9.50;74.30
4097;DHT22;2062;50.694;7.246;2023-11-21T03:11:38;9.50;74.30
4097;DHT22;2062;50.694;7.246;2023-11-21T03:14:05;9.40;74.10
4097;DHT22;2062;50.694;7.246;2023-11-21T03:16:33;9.50;74.20
4097;DHT22;2062;50.694;7.246;2023-11-21T03:19:00;9.40;74.10
4097;DHT22;2062;50.694;7.246;2023-11-21T03:21:27;9.40;74.10
4097;DHT22;2062;50.694;7.246;2023-11-21T03:23:54;9.40;74.00
4097;DHT22;2062;50.694;7.246;2023-11-21T03:26:21;9.40;74.00
4097;DHT22;2062;50.694;7.246;2023-11-21T03:28:48;9.40;74.10
4097;DHT22;2062;50.694;7.246;2023-11-21T03:31:15;9.40;74.10
4097;DHT22;2062;50.694;7.246;2023-11-21T03:33:45;9.40;74.00
4097;DHT22;2062;50.694;7.246;2023-11-21T03:36:12;9.40;74.00
4097;DHT22;2062;50.694;7.246;2023-11-21T03:38:41;9.40;74.00
4097;DHT22;2062;50.694;7.246;2023-11-21T03:41:08;9.40;73.90
4097;DHT22;2062;50.694;7.246;2023-11-21T03:43:36;9.40;73.90
4097;DHT22;2062;50.694;7.246;2023-11-21T03:46:03;9.40;74.00
4097;DHT22;2062;50.694;7.246;2023-11-21T03:48:30;9.40;74.00
4097;DHT22;2062;50.694;7.246;2023-11-21T03:50:59;9.40;74.00
4097;DHT22;2062;50.694;7.246;2023-11-21T03:53:26;9.40;74.00
4097;DHT22;2062;50.694;7.246;2023-11-21T03:55:53;9.40;74.00
4097;DHT22;2062;50.694;7.246;2023-11-21T03:58:20;9.30;73.90
4097;DHT22;2062;50.694;7.246;2023-11-21T04:00:47;9.30;74.00
4097;DHT22;2062;50.694;7.246;2023-11-21T04:03:14;9.30;74.00
4097;DHT22;2062;50.694;7.246;2023-11-21T04:05:41;9.40;74.10
4097;DHT22;2062;50.694;7.246;2023-11-21T04:08:10;9.30;74.10
4097;DHT22;2062;50.694;7.246;2023-11-21T04:10:36;9.30;74.00
4097;DHT22;2062;50.694;7.246;2023-11-21T04:13:05;9.30;74.10
4097;DHT22;2062;50.694;7.246;2023-11-21T04:15:32;9.30;74.10
4097;DHT22;2062;50.694;7.246;2023-11-21T04:17:58;9.50;74.20
4097;DHT22;2062;50.694;7.246;2023-11-21T04:20:25;9.30;74.10
4097;DHT22;2062;50.694;7.246;2023-11-21T04:22:52;9.30;74.10
4097;DHT22;2062;50.694;7.246;2023-11-21T04:25:20;9.30;74.10
4097;DHT22;2062;50.694;7.246;2023-11-21T04:27:48;9.30;74.10
4097;DHT22;2062;50.694;7.246;2023-11-21T04:30:15;9.30;74.20
4097;DHT22;2062;50.694;7.246;2023-11-21T04:32:42;9.20;74.10
4097;DHT22;2062;50.694;7.246;2023-11-21T04:35:09;9.30;74.20
4097;DHT22;2062;50.694;7.246;2023-11-21T04:37:36;9.30;74.20
4097;DHT22;2062;50.694;7.246;2023-11-21T04:40:04;9.30;74.20
4097;DHT22;2062;50.694;7.246;2023-11-21T04:42:35;9.20;74.10
4097;DHT22;2062;50.694;7.246;2023-11-21T04:45:03;9.20;74.10
4097;DHT22;2062;50.694;7.246;2023-11-21T04:47:32;9.30;74.30
4097;DHT22;2062;50.694;7.246;2023-11-21T04:49:59;9.30;74.30
4097;DHT22;2062;50.694;7.246;2023-11-21T04:52:26;9.20;74.20
4097;DHT22;2062;50.694;7.246;2023-11-21T04:54:53;9.30;74.40
4097;DHT22;2062;50.694;7.246;2023-11-21T04:57:20;9.30;74.30
4097;DHT22;2062;50.694;7.246;2023-11-21T04:59:49;9.20;74.30
4097;DHT22;2062;50.694;7.246;2023-11-21T05:02:16;9.30;74.40
4097;DHT22;2062;50.694;7.246;2023-11-21T05:04:44;9.20;74.30
4097;DHT22;2062;50.694;7.246;2023-11-21T05:07:11;9.20;74.40
4097;DHT22;2062;50.694;7.246;2023-11-21T05:09:41;9.20;74.30
4097;DHT22;2062;50.694;7.246;2023-11-21T05:12:09;9.20;74.40
4097;DHT22;2062;50.694;7.246;2023-11-21T05:14:36;9.20;74.40
4097;DHT22;2062;50.694;7.246;2023-11-21T05:17:04;9.30;74.50
4097;DHT22;2062;50.694;7.246;2023-11-21T05:19:31;9.20;74.40
4097;DHT22;2062;50.694;7.246;2023-11-21T05:21:58;9.20;75.30
4097;DHT22;2062;50.694;7.246;2023-11-21T05:24:26;9.20;74.40
4097;DHT22;2062;50.694;7.246;2023-11-21T05:26:54;9.20;74.40
4097;DHT22;2062;50.694;7.246;2023-11-21T05:29:21;9.30;74.50
4097;DHT22;2062;50.694;7.246;2023-11-21T05:31:48;9.20;74.40
4097;DHT22;2062;50.694;7.246;2023-11-21T05:34:16;9.20;74.40
4097;DHT22;2062;50.694;7.246;2023-11-21T05:36:43;9.20;74.50
4097;DHT22;2062;50.694;7.246;2023-11-21T05:39:11;9.20;74.40
4097;DHT22;2062;50.694;7.246;2023-11-21T05:41:38;9.20;74.50
4097;DHT22;2062;50.694;7.246;2023-11-21T05:44:05;9.30;74.60
4097;DHT22;2062;50.694;7.246;2023-11-21T05:46:31;9.20;74.50
4097;DHT22;2062;50.694;7.246;2023-11-21T05:48:58;9.20;74.50
4097;DHT22;2062;50.694;7.246;2023-11-21T05:51:26;9.20;74.50
4097;DHT22;2062;50.694;7.246;2023-11-21T05:53:54;9.20;74.50
4097;DHT22;2062;50.694;7.246;2023-11-21T05:56:21;9.20;74.60
4097;DHT22;2062;50.694;7.246;2023-11-21T05:58:48;9.30;74.70
4097;DHT22;2062;50.694;7.246;2023-11-21T06:01:15;9.20;74.60
4097;DHT22;2062;50.694;7.246;2023-11-21T06:03:42;9.20;74.50
4097;DHT22;2062;50.694;7.246;2023-11-21T06:06:09;9.20;74.50
4097;DHT22;2062;50.694;7.246;2023-11-21T06:08:37;9.20;74.50
4097;DHT22;2062;50.694;7.246;2023-11-21T06:11:04;9.20;74.50
4097;DHT22;2062;50.694;7.246;2023-11-21T06:13:31;9.20;74.40
4097;DHT22;2062;50.694;7.246;2023-11-21T06:15:58;9.20;74.30
4097;DHT22;2062;50.694;7.246;2023-11-21T06:18:25;9.20;74.40
4097;DHT22;2062;50.694;7.246;2023-11-21T06:20:52;9.20;74.40
4097;DHT22;2062;50.694;7.246;2023-11-21T06:23:19;9.20;74.40
4097;DHT22;2062;50.694;7.246;2023-11-21T06:25:47;9.20;74.40
4097;DHT22;2062;50.694;7.246;2023-11-21T06:28:14;9.20;74.30
4097;DHT22;2062;50.694;7.246;2023-11-21T06:30:43;9.20;74.40
4097;DHT22;2062;50.694;7.246;2023-11-21T06:33:10;9.20;74.50
4097;DHT22;2062;50.694;7.246;2023-11-21T06:35:37;9.20;74.50
4097;DHT22;2062;50.694;7.246;2023-11-21T06:38:05;9.20;74.50
4097;DHT22;2062;50.694;7.246;2023-11-21T06:40:32;9.20;74.40
4097;DHT22;2062;50.694;7.246;2023-11-21T06:43:01;9.20;74.50
4097;DHT22;2062;50.694;7.246;2023-11-21T06:45:28;9.20;74.50
4097;DHT22;2062;50.694;7.246;2023-11-21T06:47:54;9.20;74.50
4097;DHT22;2062;50.694;7.246;2023-11-21T06:50:21;9.20;74.50
4097;DHT22;2062;50.694;7.246;2023-11-21T06:52:48;9.20;74.50
4097;DHT22;2062;50.694;7.246;2023-11-21T06:55:15;9.20;74.50
4097;DHT22;2062;50.694;7.246;2023-11-21T06:57:42;9.20;74.60
4097;DHT22;2062;50.694;7.246;2023-11-21T07:00:12;9.10;74.60
4097;DHT22;2062;50.694;7.246;2023-11-21T07:02:40;9.10;74.50
4097;DHT22;2062;50.694;7.246;2023-11-21T07:05:07;9.10;74.50
4097;DHT22;2062;50.694;7.246;2023-11-21T07:07:34;9.20;74.50
4097;DHT22;2062;50.694;7.246;2023-11-21T07:10:03;9.10;74.50
4097;DHT22;2062;50.694;7.246;2023-11-21T07:12:31;9.20;74.60
4097;DHT22;2062;50.694;7.246;2023-11-21T07:14:58;9.10;74.70
4097;DHT22;2062;50.694;7.246;2023-11-21T07:17:26;9.10;74.70
4097;DHT22;2062;50.694;7.246;2023-11-21T07:19:53;9.20;74.70
4097;DHT22;2062;50.694;7.246;2023-11-21T07:22:20;9.20;74.70
4097;DHT22;2062;50.694;7.246;2023-11-21T07:24:48;9.10;74.70
4097;DHT22;2062;50.694;7.246;2023-11-21T07:27:16;9.20;74.70
4097;DHT22;2062;50.694;7.246;2023-11-21T07:29:43;9.20;74.70
4097;DHT22;2062;50.694;7.246;2023-11-21T07:32:10;9.10;74.70
4097;DHT22;2062;50.694;7.246;2023-11-21T07:34:40;9.20;74.70
4097;DHT22;2062;50.694;7.246;2023-11-21T07:37:07;9.20;74.70
4097;DHT22;2062;50.694;7.246;2023-11-21T07:39:34;9.20;74.80
4097;DHT22;2062;50.694;7.246;2023-11-21T07:42:01;9.20;74.70
4097;DHT22;2062;50.694;7.246;2023-11-21T07:44:28;9.20;74.80
4097;DHT22;2062;50.694;7.246;2023-11-21T07:46:54;9.20;74.80
4097;DHT22;2062;50.694;7.246;2023-11-21T07:49:23;9.20;75.60
4097;DHT22;2062;50.694;7.246;2023-11-21T07:51:51;9.20;74.90
4097;DHT22;2062;50.694;7.246;2023-11-21T07:54:18;9.20;74.90
4097;DHT22;2062;50.694;7.246;2023-11-21T07:56:45;9.20;74.90
4097;DHT22;2062;50.694;7.246;2023-11-21T07:59:11;9.20;75.00
4097;DHT22;2062;50.694;7.246;2023-11-21T08:01:39;9.20;74.90
4097;DHT22;2062;50.694;7.246;2023-11-21T08:04:08;9.20;74.90
4097;DHT22;2062;50.694;7.246;2023-11-21T08:06:35;9.30;75.10
4097;DHT22;2062;50.694;7.246;2023-11-21T08:09:03;9.20;75.00
4097;DHT22;2062;50.694;7.246;2023-11-21T08:11:30;9.20;75.00
4097;DHT22;2062;50.694;7.246;2023-11-21T08:13:58;9.20;75.00
4097;DHT22;2062;50.694;7.246;2023-11-21T08:16:25;9.30;75.20
4097;DHT22;2062;50.694;7.246;2023-11-21T08:18:53;9.30;75.20
4097;DHT22;2062;50.694;7.246;2023-11-21T08:21:20;9.30;75.20
4097;DHT22;2062;50.694;7.246;2023-11-21T08:23:46;9.20;75.10
4097;DHT22;2062;50.694;7.246;2023-11-21T08:26:20;9.30;75.30
4097;DHT22;2062;50.694;7.246;2023-11-21T08:28:47;9.30;75.30
4097;DHT22;2062;50.694;7.246;2023-11-21T08:31:14;9.30;75.30
4097;DHT22;2062;50.694;7.246;2023-11-21T08:33:41;9.30;75.30
4097;DHT22;2062;50.694;7.246;2023-11-21T08:36:08;9.30;75.30
4097;DHT22;2062;50.694;7.246;2023-11-21T08:38:36;9.40;75.30
4097;DHT22;2062;50.694;7.246;2023-11-21T08:41:05;9.30;75.30
4097;DHT22;2062;50.694;7.246;2023-11-21T08:43:34;9.30;75.40
4097;DHT22;2062;50.694;7.246;2023-11-21T08:46:01;9.40;75.50
4097;DHT22;2062;50.694;7.246;2023-11-21T08:48:28;9.40;75.50
4097;DHT22;2062;50.694;7.246;2023-11-21T08:50:55;9.40;75.50
4097;DHT22;2062;50.694;7.246;2023-11-21T08:53:22;9.40;75.40
4097;DHT22;2062;50.694;7.246;2023-11-21T08:55:49;9.50;75.60
4097;DHT22;2062;50.694;7.246;2023-11-21T08:58:16;9.60;76.40
4097;DHT22;2062;50.694;7.246;2023-11-21T09:00:44;9.50;75.60
4097;DHT22;2062;50.694;7.246;2023-11-21T09:03:12;9.50;75.50
4097;DHT22;2062;50.694;7.246;2023-11-21T09:05:39;9.50;75.60
4097;DHT22;2062;50.694;7.246;2023-11-21T09:08:06;9.50;75.50
4097;DHT22;2062;50.694;7.246;2023-11-21T09:10:33;9.60;75.60
4097;DHT22;2062;50.694;7.246;2023-11-21T09:13:02;9.50;75.60
4097;DHT22;2062;50.694;7.246;2023-11-21T09:15:29;9.60;75.60
4097;DHT22;2062;50.694;7.246;2023-11-21T09:17:57;9.70;75.90
4097;DHT22;2062;50.694;7.246;2023-11-21T09:20:23;9.60;75.80
4097;DHT22;2062;50.694;7.246;2023-11-21T09:22:50;9.60;76.60
4097;DHT22;2062;50.694;7.246;2023-11-21T09:25:17;9.70;75.80
4097;DHT22;2062;50.694;7.246;2023-11-21T09:27:44;9.70;75.90
4097;DHT22;2062;50.694;7.246;2023-11-21T09:30:12;9.70;75.90
4097;DHT22;2062;50.694;7.246;2023-11-21T09:32:40;9.70;76.00
4097;DHT22;2062;50.694;7.246;2023-11-21T09:35:11;9.70;76.10
4097;DHT22;2062;50.694;7.246;2023-11-21T09:37:39;9.80;76.00
4097;DHT22;2062;50.694;7.246;2023-11-21T09:40:10;9.80;76.00
4097;DHT22;2062;50.694;7.246;2023-11-21T09:42:40;9.80;76.10
4097;DHT22;2062;50.694;7.246;2023-11-21T09:45:17;9.80;76.10
4097;DHT22;2062;50.694;7.246;2023-11-21T09:47:45;9.80;76.00
4097;DHT22;2062;50.694;7.246;2023-11-21T09:50:17;9.80;76.00
4097;DHT22;2062;50.694;7.246;2023-11-21T09:52:54;9.90;76.10
4097;DHT22;2062;50.694;7.246;2023-11-21T09:55:23;9.90;76.10
4097;DHT22;2062;50.694;7.246;2023-11-21T09:57:54;9.90;76.10
4097;DHT22;2062;50.694;7.246;2023-11-21T10:00:22;9.90;76.10
4097;DHT22;2062;50.694;7.246;2023-11-21T10:02:50;10.00;76.10
4097;DHT22;2062;50.694;7.246;2023-11-21T10:05:19;10.00;76.20
4097;DHT22;2062;50.694;7.246;2023-11-21T10:07:49;10.00;76.10
4097;DHT22;2062;50.694;7.246;2023-11-21T10:10:18;10.00;76.10
4097;DHT22;2062;50.694;7.246;2023-11-21T10:12:49;10.00;76.10
4097;DHT22;2062;50.694;7.246;2023-11-21T10:15:21;10.00;76.10
4097;DHT22;2062;50.694;7.246;2023-11-21T10:17:49;10.00;76.20
4097;DHT22;2062;50.694;7.246;2023-11-21T10:20:16;10.10;76.30
4097;DHT22;2062;50.694;7.246;2023-11-21T10:22:44;10.10;76.40
4097;DHT22;2062;50.694;7.246;2023-11-21T10:25:12;10.10;77.20
4097;DHT22;2062;50.694;7.246;2023-11-21T10:27:40;10.10;76.30
4097;DHT22;2062;50.694;7.246;2023-11-21T10:30:08;10.10;77.10
4097;DHT22;2062;50.694;7.246;2023-11-21T10:32:37;10.10;76.30
4097;DHT22;2062;50.694;7.246;2023-11-21T10:35:06;10.20;76.30
4097;DHT22;2062;50.694;7.246;2023-11-21T10:37:35;10.20;76.20
4097;DHT22;2062;50.694;7.246;2023-11-21T10:40:07;10.20;76.10
4097;DHT22;2062;50.694;7.246;2023-11-21T10:42:37;10.20;76.20
4097;DHT22;2062;50.694;7.246;2023-11-21T10:45:04;10.20;77.00
4097;DHT22;2062;50.694;7.246;2023-11-21T10:47:35;10.20;76.20
4097;DHT22;2062;50.694;7.246;2023-11-21T10:50:04;10.30;76.40
4097;DHT22;2062;50.694;7.246;2023-11-21T10:52:32;10.30;76.20
4097;DHT22;2062;50.694;7.246;2023-11-21T10:55:01;10.30;76.20
4097;DHT22;2062;50.694;7.246;2023-11-21T10:57:31;10.30;76.20
4097;DHT22;2062;50.694;7.246;2023-11-21T10:59:57;10.30;76.10
4097;DHT22;2062;50.694;7.246;2023-11-21T11:02:25;10.40;76.20
4097;DHT22;2062;50.694;7.246;2023-11-21T11:04:53;10.30;76.10
4097;DHT22;2062;50.694;7.246;2023-11-21T11:07:25;10.40;76.90
4097;DHT22;2062;50.694;7.246;2023-11-21T11:09:53;10.40;76.00
4097;DHT22;2062;50.694;7.246;2023-11-21T11:12:20;10.40;76.00
4097;DHT22;2062;50.694;7.246;2023-11-21T11:14:49;10.50;76.20
4097;DHT22;2062;50.694;7.246;2023-11-21T11:17:16;10.50;76.20
4097;DHT22;2062;50.694;7.246;2023-11-21T11:19:45;10.50;76.10
4097;DHT22;2062;50.694;7.246;2023-11-21T11:22:19;10.50;76.10
4097;DHT22;2062;50.694;7.246;2023-11-21T11:25:09;10.60;76.00
4097;DHT22;2062;50.694;7.246;2023-11-21T11:27:51;10.60;75.90
4097;DHT22;2062;50.694;7.246;2023-11-21T11:30:34;10.60;75.70
4097;DHT22;2062;50.694;7.246;2023-11-21T11:33:09;10.70;75.80
4097;DHT22;2062;50.694;7.246;2023-11-21T11:35:42;10.70;76.60
4097;DHT22;2062;50.694;7.246;2023-11-21T11:38:13;10.70;75.80
4097;DHT22;2062;50.694;7.246;2023-11-21T11:40:40;10.70;75.80
4097;DHT22;2062;50.694;7.246;2023-11-21T11:43:07;10.80;75.80
4097;DHT22;2062;50.694;7.246;2023-11-21T11:45:36;10.80;75.80
4097;DHT22;2062;50.694;7.246;2023-11-21T11:48:07;10.80;75.80
4097;DHT22;2062;50.694;7.246;2023-11-21T11:50:34;10.80;75.80
4097;DHT22;2062;50.694;7.246;2023-11-21T11:53:12;10.80;75.70
4097;DHT22;2062;50.694;7.246;2023-11-21T11:55:39;10.90;75.80
4097;DHT22;2062;50.694;7.246;2023-11-21T11:58:07;10.90;75.70
4097;DHT22;2062;50.694;7.246;2023-11-21T12:00:36;11.00;75.60
4097;DHT22;2062;50.694;7.246;2023-11-21T12:03:06;10.90;75.60
4097;DHT22;2062;50.694;7.246;2023-11-21T12:05:34;11.00;75.50
4097;DHT22;2062;50.694;7.246;2023-11-21T12:08:05;11.00;75.40
4097;DHT22;2062;50.694;7.246;2023-11-21T12:10:33;11.10;75.50
4097;DHT22;2062;50.694;7.246;2023-11-21T12:13:01;11.00;75.30
4097;DHT22;2062;50.694;7.246;2023-11-21T12:15:28;11.00;75.20
4097;DHT22;2062;50.694;7.246;2023-11-21T12:17:58;11.00;75.20
4097;DHT22;2062;50.694;7.246;2023-11-21T12:20:26;11.00;75.20
4097;DHT22;2062;50.694;7.246;2023-11-21T12:22:54;11.00;75.10
4097;DHT22;2062;50.694;7.246;2023-11-21T12:25:22;11.00;75.00
4097;DHT22;2062;50.694;7.246;2023-11-21T12:27:50;11.00;74.90
4097;DHT22;2062;50.694;7.246;2023-11-21T12:30:18;11.00;74.90
4097;DHT22;2062;50.694;7.246;2023-11-21T12:32:49;11.00;74.80
4097;DHT22;2062;50.694;7.246;2023-11-21T12:35:18;11.00;74.80
4097;DHT22;2062;50.694;7.246;2023-11-21T12:37:47;11.00;74.80
4097;DHT22;2062;50.694;7.246;2023-11-21T12:40:14;11.00;74.80
4097;DHT22;2062;50.694;7.246;2023-11-21T12:42:44;11.00;74.70
4097;DHT22;2062;50.694;7.246;2023-11-21T12:45:19;10.90;74.70
4097;DHT22;2062;50.694;7.246;2023-11-21T12:47:47;10.90;74.70
4097;DHT22;2062;50.694;7.246;2023-11-21T12:50:14;10.90;74.70
4097;DHT22;2062;50.694;7.246;2023-11-21T12:52:46;10.90;74.70
4097;DHT22;2062;50.694;7.246;2023-11-21T12:55:15;10.90;74.80
4097;DHT22;2062;50.694;7.246;2023-11-21T12:57:43;10.80;74.70
4097;DHT22;2062;50.694;7.246;2023-11-21T13:00:12;10.90;74.90
4097;DHT22;2062;50.694;7.246;2023-11-21T13:02:51;10.90;75.10
4097;DHT22;2062;50.694;7.246;2023-11-21T13:05:24;10.90;75.10
4097;DHT22;2062;50.694;7.246;2023-11-21T13:07:53;10.80;75.10
4097;DHT22;2062;50.694;7.246;2023-11-21T13:10:23;10.90;75.40
4097;DHT22;2062;50.694;7.246;2023-11-21T13:12:55;10.90;75.30
4097;DHT22;2062;50.694;7.246;2023-11-21T13:15:23;10.90;75.20
4097;DHT22;2062;50.694;7.246;2023-11-21T13:17:50;10.90;75.20
4097;DHT22;2062;50.694;7.246;2023-11-21T13:20:19;11.00;75.20
4097;DHT22;2062;50.694;7.246;2023-11-21T13:22:48;11.00;75.20
4097;DHT22;2062;50.694;7.246;2023-11-21T13:25:17;11.00;75.20
4097;DHT22;2062;50.694;7.246;2023-11-21T13:27:45;11.00;75.10
4097;DHT22;2062;50.694;7.246;2023-11-21T13:30:13;11.10;76.10
4097;DHT22;2062;50.694;7.246;2023-11-21T13:32:44;11.10;75.20
4097;DHT22;2062;50.694;7.246;2023-11-21T13:35:12;11.10;75.20
4097;DHT22;2062;50.694;7.246;2023-11-21T13:37:48;11.10;75.10
4097;DHT22;2062;50.694;7.246;2023-11-21T13:40:20;11.10;74.90
4097;DHT22;2062;50.694;7.246;2023-11-21T13:42:49;11.20;74.90
4097;DHT22;2062;50.694;7.246;2023-11-21T13:45:19;11.10;74.90
4097;DHT22;2062;50.694;7.246;2023-11-21T13:47:46;11.10;74.80
4097;DHT22;2062;50.694;7.246;2023-11-21T13:50:13;11.10;74.80
4097;DHT22;2062;50.694;7.246;2023-11-21T13:52:48;11.10;74.80
4097;DHT22;2062;50.694;7.246;2023-11-21T13:55:14;11.20;74.70
4097;DHT22;2062;50.694;7.246;2023-11-21T13:57:43;11.10;74.70
4097;DHT22;2062;50.694;7.246;2023-11-21T14:00:13;11.20;74.70
4097;DHT22;2062;50.694;7.246;2023-11-21T14:03:01;11.20;74.70
4097;DHT22;2062;50.694;7.246;2023-11-21T14:05:28;11.10;74.40
4097;DHT22;2062;50.694;7.246;2023-11-21T14:07:57;11.10;74.40
4097;DHT22;2062;50.694;7.246;2023-11-21T14:10:28;11.20;74.30
4097;DHT22;2062;50.694;7.246;2023-11-21T14:13:04;11.10;74.40
4097;DHT22;2062;50.694;7.246;2023-11-21T14:15:31;11.10;74.30
4097;DHT22;2062;50.694;7.246;2023-11-21T14:17:58;11.10;74.30
4097;DHT22;2062;50.694;7.246;2023-11-21T14:20:28;11.10;74.30
4097;DHT22;2062;50.694;7.246;2023-11-21T14:22:55;11.10;74.30
4097;DHT22;2062;50.694;7.246;2023-11-21T14:25:22;11.10;74.30
4097;DHT22;2062;50.694;7.246;2023-11-21T14:27:49;11.10;74.20
4097;DHT22;2062;50.694;7.246;2023-11-21T14:30:18;11.00;74.00
4097;DHT22;2062;50.694;7.246;2023-11-21T14:32:47;11.00;73.90
4097;DHT22;2062;50.694;7.246;2023-11-21T14:35:15;11.00;73.90
4097;DHT22;2062;50.694;7.246;2023-11-21T14:37:41;11.00;74.00
4097;DHT22;2062;50.694;7.246;2023-11-21T14:40:09;11.00;74.00
4097;DHT22;2062;50.694;7.246;2023-11-21T14:42:36;10.90;74.00
4097;DHT22;2062;50.694;7.246;2023-11-21T14:45:06;10.90;73.90
4097;DHT22;2062;50.694;7.246;2023-11-21T14:47:35;10.90;73.90
4097;DHT22;2062;50.694;7.246;2023-11-21T14:50:06;10.90;74.00
4097;DHT22;2062;50.694;7.246;2023-11-21T14:52:53;10.90;73.90
4097;DHT22;2062;50.694;7.246;2023-11-21T14:55:24;10.80;73.90
4097;DHT22;2062;50.694;7.246;2023-11-21T14:57:57;10.80;73.90
4097;DHT22;2062;50.694;7.246;2023-11-21T15:00:27;10.80;73.90
4097;DHT22;2062;50.694;7.246;2023-11-21T15:03:12;10.80;73.80
4097;DHT22;2062;50.694;7.246;2023-11-21T15:05:56;10.80;74.60
4097;DHT22;2062;50.694;7.246;2023-11-21T15:08:24;10.70;73.80
4097;DHT22;2062;50.694;7.246;2023-11-21T15:10:56;10.70;73.90
4097;DHT22;2062;50.694;7.246;2023-11-21T15:13:22;10.70;74.00
4097;DHT22;2062;50.694;7.246;2023-11-21T15:15:49;10.60;73.80
4097;DHT22;2062;50.694;7.246;2023-11-21T15:18:17;10.60;73.80
4097;DHT22;2062;50.694;7.246;2023-11-21T15:20:46;10.60;73.80
4097;DHT22;2062;50.694;7.246;2023-11-21T15:23:13;10.60;73.80
4097;DHT22;2062;50.694;7.246;2023-11-21T15:25:40;10.60;73.80
4097;DHT22;2062;50.694;7.246;2023-11-21T15:28:06;10.60;73.80
4097;DHT22;2062;50.694;7.246;2023-11-21T15:30:33;10.50;73.80
4097;DHT22;2062;50.694;7.246;2023-11-21T15:33:00;10.50;73.80
4097;DHT22;2062;50.694;7.246;2023-11-21T15:35:30;10.60;73.90
4097;DHT22;2062;50.694;7.246;2023-11-21T15:37:58;10.50;73.90
4097;DHT22;2062;50.694;7.246;2023-11-21T15:40:25;10.50;73.80
4097;DHT22;2062;50.694;7.246;2023-11-21T15:42:52;10.50;73.90
4097;DHT22;2062;50.694;7.246;2023-11-21T15:45:19;10.50;73.90
4097;DHT22;2062;50.694;7.246;2023-11-21T15:47:48;10.40;73.70
4097;DHT22;2062;50.694;7.246;2023-11-21T15:50:15;10.50;73.90
4097;DHT22;2062;50.694;7.246;2023-11-21T15:52:43;10.50;74.00
4097;DHT22;2062;50.694;7.246;2023-11-21T15:55:11;10.40;73.80
4097;DHT22;2062;50.694;7.246;2023-11-21T15:57:38;10.40;73.80
4097;DHT22;2062;50.694;7.246;2023-11-21T16:00:06;10.40;73.90
4097;DHT22;2062;50.694;7.246;2023-11-21T16:02:41;10.30;73.90
4097;DHT22;2062;50.694;7.246;2023-11-21T16:05:08;10.40;73.90
4097;DHT22;2062;50.694;7.246;2023-11-21T16:07:35;10.40;73.90
4097;DHT22;2062;50.694;7.246;2023-11-21T16:10:06;10.30;74.00
4097;DHT22;2062;50.694;7.246;2023-11-21T16:12:33;10.30;74.10
4097;DHT22;2062;50.694;7.246;2023-11-21T16:14:59;10.30;74.10
4097;DHT22;2062;50.694;7.246;2023-11-21T16:17:33;10.30;74.10
4097;DHT22;2062;50.694;7.246;2023-11-21T16:20:00;10.30;74.20